sensor_id;sensor_type;location;lat;lon;timestamp;P1;durP1;ratioP1;P2;durP2;ratioP2
65996;SDS011;52765;52.258;21.052;2023-10-19T00:02:05;47.15;;;23.40;;
65996;SDS011;52765;52.258;21.052;2023-10-19T00:04:32;56.22;;;24.50;;
65996;SDS011;52765;52.258;21.052;2023-10-19T00:07:00;47.45;;;25.40;;
65996;SDS011;52765;52.258;21.052;2023-10-19T00:09:26;51.05;;;24.80;;
65996;SDS011;52765;52.258;21.052;2023-10-19T00:12:00;57.50;;;27.23;;
65996;SDS011;52765;52.258;21.052;2023-10-19T00:14:27;47.80;;;25.55;;
65996;SDS011;52765;52.258;21.052;2023-10-19T00:16:53;56.80;;;27.60;;
65996;SDS011;52765;52.258;21.052;2023-10-19T00:19:22;61.00;;;30.30;;
65996;SDS011;52765;52.258;21.052;2023-10-19T00:21:47;59.05;;;29.73;;
65996;SDS011;52765;52.258;21.052;2023-10-19T00:24:19;55.00;;;28.77;;
65996;SDS011;52765;52.258;21.052;2023-10-19T00:26:48;55.42;;;28.83;;
65996;SDS011;52765;52.258;21.052;2023-10-19T00:29:14;59.67;;;29.70;;
65996;SDS011;52765;52.258;21.052;2023-10-19T00:31:56;56.88;;;30.00;;
65996;SDS011;52765;52.258;21.052;2023-10-19T00:34:24;53.60;;;28.73;;
65996;SDS011;52765;52.258;21.052;2023-10-19T00:36:56;57.83;;;29.65;;
65996;SDS011;52765;52.258;21.052;2023-10-19T00:39:36;53.20;;;28.83;;
65996;SDS011;52765;52.258;21.052;2023-10-19T00:42:09;55.08;;;29.27;;
65996;SDS011;52765;52.258;21.052;2023-10-19T00:44:35;53.85;;;29.13;;
65996;SDS011;52765;52.258;21.052;2023-10-19T00:47:08;56.50;;;28.35;;
65996;SDS011;52765;52.258;21.052;2023-10-19T00:49:46;56.53;;;30.65;;
65996;SDS011;52765;52.258;21.052;2023-10-19T00:52:28;54.63;;;30.17;;
65996;SDS011;52765;52.258;21.052;2023-10-19T00:54:59;65.93;;;30.65;;
65996;SDS011;52765;52.258;21.052;2023-10-19T00:57:25;66.22;;;31.55;;
65996;SDS011;52765;52.258;21.052;2023-10-19T00:59:59;63.35;;;32.53;;
65996;SDS011;52765;52.258;21.052;2023-10-19T01:02:46;55.50;;;30.52;;
65996;SDS011;52765;52.258;21.052;2023-10-19T01:05:12;56.20;;;29.92;;
65996;SDS011;52765;52.258;21.052;2023-10-19T01:07:51;61.22;;;31.83;;
65996;SDS011;52765;52.258;21.052;2023-10-19T01:10:26;60.15;;;30.23;;
65996;SDS011;52765;52.258;21.052;2023-10-19T01:12:53;58.15;;;31.60;;
65996;SDS011;52765;52.258;21.052;2023-10-19T01:15:20;60.53;;;31.65;;
65996;SDS011;52765;52.258;21.052;2023-10-19T01:17:53;62.67;;;30.67;;
65996;SDS011;52765;52.258;21.052;2023-10-19T01:20:35;66.55;;;35.67;;
65996;SDS011;52765;52.258;21.052;2023-10-19T01:23:15;68.15;;;35.25;;
65996;SDS011;52765;52.258;21.052;2023-10-19T01:25:53;61.53;;;32.47;;
65996;SDS011;52765;52.258;21.052;2023-10-19T01:28:25;64.10;;;33.30;;
65996;SDS011;52765;52.258;21.052;2023-10-19T01:30:53;64.25;;;32.25;;
65996;SDS011;52765;52.258;21.052;2023-10-19T01:33:19;66.88;;;33.38;;
65996;SDS011;52765;52.258;21.052;2023-10-19T01:35:47;59.72;;;31.50;;
65996;SDS011;52765;52.258;21.052;2023-10-19T01:38:31;61.72;;;32.80;;
65996;SDS011;52765;52.258;21.052;2023-10-19T01:41:01;64.63;;;32.45;;
65996;SDS011;52765;52.258;21.052;2023-10-19T01:43:31;62.72;;;32.97;;
65996;SDS011;52765;52.258;21.052;2023-10-19T01:46:00;65.20;;;33.50;;
65996;SDS011;52765;52.258;21.052;2023-10-19T01:48:31;60.53;;;33.40;;
65996;SDS011;52765;52.258;21.052;2023-10-19T01:50:59;65.75;;;33.28;;
65996;SDS011;52765;52.258;21.052;2023-10-19T01:53:31;64.60;;;33.80;;
65996;SDS011;52765;52.258;21.052;2023-10-19T01:56:01;62.72;;;33.03;;
65996;SDS011;52765;52.258;21.052;2023-10-19T01:58:31;70.40;;;33.38;;
65996;SDS011;52765;52.258;21.052;2023-10-19T02:01:01;66.35;;;33.25;;
65996;SDS011;52765;52.258;21.052;2023-10-19T02:03:39;61.78;;;33.08;;
65996;SDS011;52765;52.258;21.052;2023-10-19T02:06:09;69.57;;;34.03;;
65996;SDS011;52765;52.258;21.052;2023-10-19T02:08:50;59.90;;;33.50;;
65996;SDS011;52765;52.258;21.052;2023-10-19T02:11:20;64.30;;;32.63;;
65996;SDS011;52765;52.258;21.052;2023-10-19T02:13:47;67.75;;;35.65;;
65996;SDS011;52765;52.258;21.052;2023-10-19T02:16:16;71.55;;;35.42;;
65996;SDS011;52765;52.258;21.052;2023-10-19T02:18:46;70.80;;;38.88;;
65996;SDS011;52765;52.258;21.052;2023-10-19T02:21:12;72.00;;;38.40;;
65996;SDS011;52765;52.258;21.052;2023-10-19T02:23:41;75.80;;;37.75;;
65996;SDS011;52765;52.258;21.052;2023-10-19T02:26:09;71.82;;;37.42;;
65996;SDS011;52765;52.258;21.052;2023-10-19T02:28:38;71.22;;;36.70;;
65996;SDS011;52765;52.258;21.052;2023-10-19T02:31:05;69.55;;;36.78;;
65996;SDS011;52765;52.258;21.052;2023-10-19T02:33:47;72.50;;;38.03;;
65996;SDS011;52765;52.258;21.052;2023-10-19T02:36:29;76.30;;;37.75;;
65996;SDS011;52765;52.258;21.052;2023-10-19T02:38:56;72.95;;;38.80;;
65996;SDS011;52765;52.258;21.052;2023-10-19T02:41:28;72.47;;;37.90;;
65996;SDS011;52765;52.258;21.052;2023-10-19T02:43:53;69.15;;;36.28;;
65996;SDS011;52765;52.258;21.052;2023-10-19T02:46:42;71.05;;;37.80;;
65996;SDS011;52765;52.258;21.052;2023-10-19T02:49:09;71.22;;;37.72;;
65996;SDS011;52765;52.258;21.052;2023-10-19T02:51:39;72.15;;;37.72;;
65996;SDS011;52765;52.258;21.052;2023-10-19T02:54:07;73.05;;;37.70;;
65996;SDS011;52765;52.258;21.052;2023-10-19T02:56:34;73.22;;;37.53;;
65996;SDS011;52765;52.258;21.052;2023-10-19T02:59:01;74.85;;;37.67;;
65996;SDS011;52765;52.258;21.052;2023-10-19T03:01:31;71.30;;;38.13;;
65996;SDS011;52765;52.258;21.052;2023-10-19T03:04:01;74.90;;;38.65;;
65996;SDS011;52765;52.258;21.052;2023-10-19T03:06:31;72.35;;;38.08;;
65996;SDS011;52765;52.258;21.052;2023-10-19T03:09:04;68.95;;;37.40;;
65996;SDS011;52765;52.258;21.052;2023-10-19T03:11:38;71.18;;;37.13;;
65996;SDS011;52765;52.258;21.052;2023-10-19T03:14:08;78.10;;;39.92;;
65996;SDS011;52765;52.258;21.052;2023-10-19T03:16:40;70.82;;;38.08;;
65996;SDS011;52765;52.258;21.052;2023-10-19T03:19:07;72.40;;;38.10;;
65996;SDS011;52765;52.258;21.052;2023-10-19T03:21:33;72.00;;;38.30;;
65996;SDS011;52765;52.258;21.052;2023-10-19T03:24:07;74.30;;;38.38;;
65996;SDS011;52765;52.258;21.052;2023-10-19T03:26:48;75.13;;;37.90;;
65996;SDS011;52765;52.258;21.052;2023-10-19T03:29:18;68.78;;;38.03;;
65996;SDS011;52765;52.258;21.052;2023-10-19T03:31:51;75.55;;;37.83;;
65996;SDS011;52765;52.258;21.052;2023-10-19T03:34:17;72.95;;;37.45;;
65996;SDS011;52765;52.258;21.052;2023-10-19T03:36:43;75.35;;;38.83;;
65996;SDS011;52765;52.258;21.052;2023-10-19T03:39:09;74.47;;;38.13;;
65996;SDS011;52765;52.258;21.052;2023-10-19T03:41:40;70.82;;;39.03;;
65996;SDS011;52765;52.258;21.052;2023-10-19T03:44:12;70.78;;;37.17;;
65996;SDS011;52765;52.258;21.052;2023-10-19T03:46:50;76.15;;;38.67;;
65996;SDS011;52765;52.258;21.052;2023-10-19T03:49:19;75.53;;;38.20;;
65996;SDS011;52765;52.258;21.052;2023-10-19T03:51:46;68.25;;;37.33;;
65996;SDS011;52765;52.258;21.052;2023-10-19T03:54:27;76.03;;;38.80;;
65996;SDS011;52765;52.258;21.052;2023-10-19T03:56:53;69.18;;;38.30;;
65996;SDS011;52765;52.258;21.052;2023-10-19T03:59:31;66.85;;;36.58;;
65996;SDS011;52765;52.258;21.052;2023-10-19T04:01:59;73.18;;;39.00;;
65996;SDS011;52765;52.258;21.052;2023-10-19T04:04:25;70.85;;;37.78;;
65996;SDS011;52765;52.258;21.052;2023-10-19T04:06:54;69.90;;;37.20;;
65996;SDS011;52765;52.258;21.052;2023-10-19T04:09:23;75.53;;;38.38;;
65996;SDS011;52765;52.258;21.052;2023-10-19T04:11:55;70.97;;;38.78;;
65996;SDS011;52765;52.258;21.052;2023-10-19T04:14:21;73.68;;;38.53;;
65996;SDS011;52765;52.258;21.052;2023-10-19T04:16:47;72.88;;;37.13;;
65996;SDS011;52765;52.258;21.052;2023-10-19T04:19:14;72.80;;;36.65;;
65996;SDS011;52765;52.258;21.052;2023-10-19T04:21:41;68.55;;;36.97;;
65996;SDS011;52765;52.258;21.052;2023-10-19T04:24:12;75.50;;;38.25;;
65996;SDS011;52765;52.258;21.052;2023-10-19T04:26:38;72.10;;;37.47;;
65996;SDS011;52765;52.258;21.052;2023-10-19T04:29:04;70.70;;;36.53;;
65996;SDS011;52765;52.258;21.052;2023-10-19T04:31:37;80.85;;;40.47;;
65996;SDS011;52765;52.258;21.052;2023-10-19T04:34:17;68.13;;;35.85;;
65996;SDS011;52765;52.258;21.052;2023-10-19T04:36:46;69.72;;;37.50;;
65996;SDS011;52765;52.258;21.052;2023-10-19T04:39:18;67.63;;;35.95;;
65996;SDS011;52765;52.258;21.052;2023-10-19T04:41:47;88.75;;;43.15;;
65996;SDS011;52765;52.258;21.052;2023-10-19T04:44:15;77.47;;;39.40;;
65996;SDS011;52765;52.258;21.052;2023-10-19T04:46:41;66.93;;;35.90;;
65996;SDS011;52765;52.258;21.052;2023-10-19T04:49:07;68.75;;;37.05;;
65996;SDS011;52765;52.258;21.052;2023-10-19T04:51:33;84.75;;;41.90;;
65996;SDS011;52765;52.258;21.052;2023-10-19T04:54:02;72.20;;;37.60;;
65996;SDS011;52765;52.258;21.052;2023-10-19T04:56:28;69.97;;;35.95;;
65996;SDS011;52765;52.258;21.052;2023-10-19T04:58:54;64.90;;;35.60;;
65996;SDS011;52765;52.258;21.052;2023-10-19T05:01:19;71.28;;;35.95;;
65996;SDS011;52765;52.258;21.052;2023-10-19T05:03:45;68.30;;;36.95;;
65996;SDS011;52765;52.258;21.052;2023-10-19T05:06:10;73.57;;;37.10;;
65996;SDS011;52765;52.258;21.052;2023-10-19T05:08:36;63.00;;;34.72;;
65996;SDS011;52765;52.258;21.052;2023-10-19T05:11:05;63.50;;;36.83;;
65996;SDS011;52765;52.258;21.052;2023-10-19T05:13:31;67.10;;;36.28;;
65996;SDS011;52765;52.258;21.052;2023-10-19T05:16:00;66.30;;;35.45;;
65996;SDS011;52765;52.258;21.052;2023-10-19T05:18:26;66.25;;;35.90;;
65996;SDS011;52765;52.258;21.052;2023-10-19T05:20:52;70.05;;;35.47;;
65996;SDS011;52765;52.258;21.052;2023-10-19T05:23:23;70.30;;;35.33;;
65996;SDS011;52765;52.258;21.052;2023-10-19T05:25:53;60.47;;;34.22;;
65996;SDS011;52765;52.258;21.052;2023-10-19T05:28:25;65.40;;;33.45;;
65996;SDS011;52765;52.258;21.052;2023-10-19T05:30:50;67.95;;;34.10;;
65996;SDS011;52765;52.258;21.052;2023-10-19T05:33:16;60.03;;;32.20;;
65996;SDS011;52765;52.258;21.052;2023-10-19T05:35:47;64.10;;;34.22;;
65996;SDS011;52765;52.258;21.052;2023-10-19T05:38:12;68.22;;;36.53;;
65996;SDS011;52765;52.258;21.052;2023-10-19T05:40:38;62.22;;;34.20;;
65996;SDS011;52765;52.258;21.052;2023-10-19T05:43:04;62.92;;;34.63;;
65996;SDS011;52765;52.258;21.052;2023-10-19T05:45:30;59.97;;;34.25;;
65996;SDS011;52765;52.258;21.052;2023-10-19T05:47:57;60.85;;;31.83;;
65996;SDS011;52765;52.258;21.052;2023-10-19T05:50:23;64.85;;;33.75;;
65996;SDS011;52765;52.258;21.052;2023-10-19T05:52:50;75.57;;;34.25;;
65996;SDS011;52765;52.258;21.052;2023-10-19T05:55:17;93.20;;;35.47;;
65996;SDS011;52765;52.258;21.052;2023-10-19T05:57:43;236.80;;;71.20;;
65996;SDS011;52765;52.258;21.052;2023-10-19T06:00:10;121.25;;;48.78;;
65996;SDS011;52765;52.258;21.052;2023-10-19T06:02:46;113.63;;;43.75;;
65996;SDS011;52765;52.258;21.052;2023-10-19T06:05:14;89.43;;;38.77;;
65996;SDS011;52765;52.258;21.052;2023-10-19T06:07:41;68.55;;;33.85;;
65996;SDS011;52765;52.258;21.052;2023-10-19T06:10:08;69.22;;;33.50;;
65996;SDS011;52765;52.258;21.052;2023-10-19T06:12:40;69.78;;;31.05;;
65996;SDS011;52765;52.258;21.052;2023-10-19T06:15:13;59.47;;;31.60;;
65996;SDS011;52765;52.258;21.052;2023-10-19T06:17:43;62.78;;;30.55;;
65996;SDS011;52765;52.258;21.052;2023-10-19T06:20:13;63.13;;;29.50;;
65996;SDS011;52765;52.258;21.052;2023-10-19T06:22:50;59.55;;;30.15;;
65996;SDS011;52765;52.258;21.052;2023-10-19T06:25:21;53.40;;;26.83;;
65996;SDS011;52765;52.258;21.052;2023-10-19T06:27:49;55.97;;;28.45;;
65996;SDS011;52765;52.258;21.052;2023-10-19T06:30:16;58.08;;;28.35;;
65996;SDS011;52765;52.258;21.052;2023-10-19T06:32:52;57.70;;;26.65;;
65996;SDS011;52765;52.258;21.052;2023-10-19T06:35:20;58.08;;;28.77;;
65996;SDS011;52765;52.258;21.052;2023-10-19T06:37:46;58.15;;;28.05;;
65996;SDS011;52765;52.258;21.052;2023-10-19T06:40:13;62.35;;;27.42;;
65996;SDS011;52765;52.258;21.052;2023-10-19T06:42:40;53.13;;;26.38;;
65996;SDS011;52765;52.258;21.052;2023-10-19T06:45:07;54.20;;;25.63;;
65996;SDS011;52765;52.258;21.052;2023-10-19T06:47:39;67.88;;;27.35;;
65996;SDS011;52765;52.258;21.052;2023-10-19T06:50:06;60.22;;;25.95;;
65996;SDS011;52765;52.258;21.052;2023-10-19T06:52:35;67.15;;;27.45;;
65996;SDS011;52765;52.258;21.052;2023-10-19T06:55:05;57.25;;;25.90;;
65996;SDS011;52765;52.258;21.052;2023-10-19T06:57:45;56.05;;;26.95;;
65996;SDS011;52765;52.258;21.052;2023-10-19T07:00:13;49.63;;;24.13;;
65996;SDS011;52765;52.258;21.052;2023-10-19T07:02:52;57.03;;;24.58;;
65996;SDS011;52765;52.258;21.052;2023-10-19T07:05:20;53.03;;;23.52;;
65996;SDS011;52765;52.258;21.052;2023-10-19T07:07:47;48.50;;;22.90;;
65996;SDS011;52765;52.258;21.052;2023-10-19T07:10:14;52.67;;;24.02;;
65996;SDS011;52765;52.258;21.052;2023-10-19T07:12:43;49.83;;;25.55;;
65996;SDS011;52765;52.258;21.052;2023-10-19T07:15:11;57.08;;;25.50;;
65996;SDS011;52765;52.258;21.052;2023-10-19T07:17:44;48.47;;;24.90;;
65996;SDS011;52765;52.258;21.052;2023-10-19T07:20:14;43.72;;;22.17;;
65996;SDS011;52765;52.258;21.052;2023-10-19T07:22:57;50.10;;;24.10;;
65996;SDS011;52765;52.258;21.052;2023-10-19T07:25:44;39.38;;;21.80;;
65996;SDS011;52765;52.258;21.052;2023-10-19T07:28:12;40.28;;;21.98;;
65996;SDS011;52765;52.258;21.052;2023-10-19T07:30:40;39.15;;;22.45;;
65996;SDS011;52765;52.258;21.052;2023-10-19T07:33:07;47.85;;;22.00;;
65996;SDS011;52765;52.258;21.052;2023-10-19T07:35:35;42.88;;;23.27;;
65996;SDS011;52765;52.258;21.052;2023-10-19T07:38:04;43.83;;;22.33;;
65996;SDS011;52765;52.258;21.052;2023-10-19T07:40:32;45.28;;;22.92;;
65996;SDS011;52765;52.258;21.052;2023-10-19T07:42:58;50.40;;;23.52;;
65996;SDS011;52765;52.258;21.052;2023-10-19T07:45:24;44.38;;;23.02;;
65996;SDS011;52765;52.258;21.052;2023-10-19T07:47:50;41.63;;;23.15;;
65996;SDS011;52765;52.258;21.052;2023-10-19T07:50:16;40.65;;;21.80;;
65996;SDS011;52765;52.258;21.052;2023-10-19T07:52:48;41.88;;;20.88;;
65996;SDS011;52765;52.258;21.052;2023-10-19T07:55:17;38.42;;;19.75;;
65996;SDS011;52765;52.258;21.052;2023-10-19T07:57:51;36.65;;;20.42;;
65996;SDS011;52765;52.258;21.052;2023-10-19T08:00:18;36.20;;;19.00;;
65996;SDS011;52765;52.258;21.052;2023-10-19T08:02:44;36.78;;;19.80;;
65996;SDS011;52765;52.258;21.052;2023-10-19T08:05:11;34.15;;;19.60;;
65996;SDS011;52765;52.258;21.052;2023-10-19T08:07:43;44.30;;;21.73;;
65996;SDS011;52765;52.258;21.052;2023-10-19T08:10:12;41.78;;;22.17;;
65996;SDS011;52765;52.258;21.052;2023-10-19T08:12:39;34.13;;;19.33;;
65996;SDS011;52765;52.258;21.052;2023-10-19T08:15:11;34.58;;;18.85;;
65996;SDS011;52765;52.258;21.052;2023-10-19T08:17:38;41.00;;;20.80;;
65996;SDS011;52765;52.258;21.052;2023-10-19T08:20:05;37.67;;;20.85;;
65996;SDS011;52765;52.258;21.052;2023-10-19T08:22:35;37.78;;;19.98;;
65996;SDS011;52765;52.258;21.052;2023-10-19T08:25:02;33.10;;;18.90;;
65996;SDS011;52765;52.258;21.052;2023-10-19T08:27:29;41.95;;;19.65;;
65996;SDS011;52765;52.258;21.052;2023-10-19T08:29:55;39.05;;;17.80;;
65996;SDS011;52765;52.258;21.052;2023-10-19T08:32:20;31.20;;;17.70;;
65996;SDS011;52765;52.258;21.052;2023-10-19T08:34:46;26.67;;;16.38;;
65996;SDS011;52765;52.258;21.052;2023-10-19T08:37:11;28.90;;;16.35;;
65996;SDS011;52765;52.258;21.052;2023-10-19T08:39:38;32.92;;;16.85;;
65996;SDS011;52765;52.258;21.052;2023-10-19T08:42:04;35.30;;;18.23;;
65996;SDS011;52765;52.258;21.052;2023-10-19T08:44:30;29.52;;;16.13;;
65996;SDS011;52765;52.258;21.052;2023-10-19T08:46:56;33.90;;;18.20;;
65996;SDS011;52765;52.258;21.052;2023-10-19T08:49:25;31.13;;;16.35;;
65996;SDS011;52765;52.258;21.052;2023-10-19T08:51:54;28.45;;;15.48;;
65996;SDS011;52765;52.258;21.052;2023-10-19T08:54:20;32.60;;;16.15;;
65996;SDS011;52765;52.258;21.052;2023-10-19T08:56:46;26.17;;;14.48;;
65996;SDS011;52765;52.258;21.052;2023-10-19T08:59:12;19.80;;;11.75;;
65996;SDS011;52765;52.258;21.052;2023-10-19T09:01:42;22.95;;;12.77;;
65996;SDS011;52765;52.258;21.052;2023-10-19T09:04:11;22.40;;;11.70;;
65996;SDS011;52765;52.258;21.052;2023-10-19T09:06:38;29.30;;;11.73;;
65996;SDS011;52765;52.258;21.052;2023-10-19T09:09:07;33.75;;;11.82;;
65996;SDS011;52765;52.258;21.052;2023-10-19T09:11:48;19.75;;;10.70;;
65996;SDS011;52765;52.258;21.052;2023-10-19T09:14:14;16.27;;;10.30;;
65996;SDS011;52765;52.258;21.052;2023-10-19T09:16:55;22.63;;;11.43;;
65996;SDS011;52765;52.258;21.052;2023-10-19T09:19:55;23.35;;;10.40;;
65996;SDS011;52765;52.258;21.052;2023-10-19T09:22:14;17.95;;;10.52;;
65996;SDS011;52765;52.258;21.052;2023-10-19T09:24:51;28.25;;;11.27;;
65996;SDS011;52765;52.258;21.052;2023-10-19T09:27:20;19.42;;;9.90;;
65996;SDS011;52765;52.258;21.052;2023-10-19T09:29:47;20.70;;;10.02;;
65996;SDS011;52765;52.258;21.052;2023-10-19T09:32:18;21.95;;;9.45;;
65996;SDS011;52765;52.258;21.052;2023-10-19T09:34:44;19.90;;;8.30;;
65996;SDS011;52765;52.258;21.052;2023-10-19T09:37:10;17.88;;;8.30;;
65996;SDS011;52765;52.258;21.052;2023-10-19T09:39:36;15.65;;;8.23;;
65996;SDS011;52765;52.258;21.052;2023-10-19T09:42:03;16.10;;;8.50;;
65996;SDS011;52765;52.258;21.052;2023-10-19T09:47:09;16.63;;;8.30;;
65996;SDS011;52765;52.258;21.052;2023-10-19T09:49:38;14.93;;;8.18;;
65996;SDS011;52765;52.258;21.052;2023-10-19T09:52:10;14.35;;;7.78;;
65996;SDS011;52765;52.258;21.052;2023-10-19T09:54:50;17.15;;;7.93;;
65996;SDS011;52765;52.258;21.052;2023-10-19T10:00:18;15.98;;;8.45;;
65996;SDS011;52765;52.258;21.052;2023-10-19T10:02:51;13.48;;;8.15;;
65996;SDS011;52765;52.258;21.052;2023-10-19T10:10:42;10.75;;;7.07;;
65996;SDS011;52765;52.258;21.052;2023-10-19T10:15:49;14.68;;;8.20;;
65996;SDS011;52765;52.258;21.052;2023-10-19T10:18:17;13.40;;;7.47;;
65996;SDS011;52765;52.258;21.052;2023-10-19T10:20:43;15.43;;;7.15;;
65996;SDS011;52765;52.258;21.052;2023-10-19T10:23:18;17.60;;;7.70;;
65996;SDS011;52765;52.258;21.052;2023-10-19T10:25:49;16.65;;;8.23;;
65996;SDS011;52765;52.258;21.052;2023-10-19T10:28:19;18.80;;;7.68;;
65996;SDS011;52765;52.258;21.052;2023-10-19T10:31:11;22.38;;;8.63;;
65996;SDS011;52765;52.258;21.052;2023-10-19T10:33:45;15.90;;;7.63;;
65996;SDS011;52765;52.258;21.052;2023-10-19T10:36:11;17.58;;;7.65;;
65996;SDS011;52765;52.258;21.052;2023-10-19T10:38:37;15.13;;;7.75;;
65996;SDS011;52765;52.258;21.052;2023-10-19T10:41:03;14.65;;;7.60;;
65996;SDS011;52765;52.258;21.052;2023-10-19T10:43:29;14.73;;;7.95;;
65996;SDS011;52765;52.258;21.052;2023-10-19T10:46:07;16.48;;;7.65;;
65996;SDS011;52765;52.258;21.052;2023-10-19T10:48:33;18.83;;;8.10;;
65996;SDS011;52765;52.258;21.052;2023-10-19T10:51:14;13.45;;;6.85;;
65996;SDS011;52765;52.258;21.052;2023-10-19T10:53:40;15.10;;;7.72;;
65996;SDS011;52765;52.258;21.052;2023-10-19T10:56:09;12.25;;;7.00;;
65996;SDS011;52765;52.258;21.052;2023-10-19T10:58:35;12.13;;;7.35;;
65996;SDS011;52765;52.258;21.052;2023-10-19T11:01:00;15.35;;;7.90;;
65996;SDS011;52765;52.258;21.052;2023-10-19T11:03:25;18.17;;;8.68;;
65996;SDS011;52765;52.258;21.052;2023-10-19T11:05:55;15.85;;;7.50;;
65996;SDS011;52765;52.258;21.052;2023-10-19T11:08:23;20.88;;;8.52;;
65996;SDS011;52765;52.258;21.052;2023-10-19T11:10:49;15.60;;;8.23;;
65996;SDS011;52765;52.258;21.052;2023-10-19T11:13:22;20.50;;;7.97;;
65996;SDS011;52765;52.258;21.052;2023-10-19T11:15:50;12.88;;;7.45;;
65996;SDS011;52765;52.258;21.052;2023-10-19T11:18:36;12.85;;;7.55;;
65996;SDS011;52765;52.258;21.052;2023-10-19T11:21:07;11.80;;;6.97;;
65996;SDS011;52765;52.258;21.052;2023-10-19T11:23:38;12.38;;;7.45;;
65996;SDS011;52765;52.258;21.052;2023-10-19T11:26:08;14.00;;;7.80;;
65996;SDS011;52765;52.258;21.052;2023-10-19T11:28:35;13.80;;;7.70;;
65996;SDS011;52765;52.258;21.052;2023-10-19T11:31:27;12.35;;;7.32;;
65996;SDS011;52765;52.258;21.052;2023-10-19T11:33:53;15.68;;;7.53;;
65996;SDS011;52765;52.258;21.052;2023-10-19T11:36:23;10.77;;;6.57;;
65996;SDS011;52765;52.258;21.052;2023-10-19T11:38:50;13.98;;;6.45;;
65996;SDS011;52765;52.258;21.052;2023-10-19T11:41:17;12.40;;;7.30;;
65996;SDS011;52765;52.258;21.052;2023-10-19T11:43:44;17.85;;;8.05;;
65996;SDS011;52765;52.258;21.052;2023-10-19T11:46:11;12.10;;;6.75;;
65996;SDS011;52765;52.258;21.052;2023-10-19T11:48:37;15.57;;;7.82;;
65996;SDS011;52765;52.258;21.052;2023-10-19T11:51:06;21.88;;;8.93;;
65996;SDS011;52765;52.258;21.052;2023-10-19T11:53:36;18.55;;;8.77;;
65996;SDS011;52765;52.258;21.052;2023-10-19T11:56:03;14.85;;;8.32;;
65996;SDS011;52765;52.258;21.052;2023-10-19T11:58:31;17.08;;;8.32;;
65996;SDS011;52765;52.258;21.052;2023-10-19T12:01:03;16.15;;;7.60;;
65996;SDS011;52765;52.258;21.052;2023-10-19T12:03:41;22.00;;;10.68;;
65996;SDS011;52765;52.258;21.052;2023-10-19T12:06:10;24.67;;;11.02;;
65996;SDS011;52765;52.258;21.052;2023-10-19T12:08:38;24.75;;;10.10;;
65996;SDS011;52765;52.258;21.052;2023-10-19T12:11:05;23.77;;;10.60;;
65996;SDS011;52765;52.258;21.052;2023-10-19T12:13:40;17.20;;;9.07;;
65996;SDS011;52765;52.258;21.052;2023-10-19T12:16:08;16.48;;;8.43;;
65996;SDS011;52765;52.258;21.052;2023-10-19T12:18:45;19.52;;;9.65;;
65996;SDS011;52765;52.258;21.052;2023-10-19T12:21:13;16.65;;;8.40;;
65996;SDS011;52765;52.258;21.052;2023-10-19T12:23:40;16.77;;;8.60;;
65996;SDS011;52765;52.258;21.052;2023-10-19T12:26:07;14.75;;;8.43;;
65996;SDS011;52765;52.258;21.052;2023-10-19T12:28:40;16.67;;;8.40;;
65996;SDS011;52765;52.258;21.052;2023-10-19T12:31:08;16.00;;;7.95;;
65996;SDS011;52765;52.258;21.052;2023-10-19T12:33:37;18.88;;;9.18;;
65996;SDS011;52765;52.258;21.052;2023-10-19T12:36:04;13.20;;;7.82;;
65996;SDS011;52765;52.258;21.052;2023-10-19T12:38:57;16.92;;;8.52;;
65996;SDS011;52765;52.258;21.052;2023-10-19T12:41:23;17.90;;;8.23;;
65996;SDS011;52765;52.258;21.052;2023-10-19T12:43:52;15.45;;;6.93;;
65996;SDS011;52765;52.258;21.052;2023-10-19T12:46:22;19.35;;;8.25;;
65996;SDS011;52765;52.258;21.052;2023-10-19T12:48:52;14.95;;;9.15;;
65996;SDS011;52765;52.258;21.052;2023-10-19T12:51:21;15.82;;;9.05;;
65996;SDS011;52765;52.258;21.052;2023-10-19T12:53:50;15.52;;;8.77;;
65996;SDS011;52765;52.258;21.052;2023-10-19T12:56:35;19.55;;;9.25;;
65996;SDS011;52765;52.258;21.052;2023-10-19T12:59:00;17.85;;;8.90;;
65996;SDS011;52765;52.258;21.052;2023-10-19T13:01:26;17.10;;;9.30;;
65996;SDS011;52765;52.258;21.052;2023-10-19T13:03:53;19.33;;;10.38;;
65996;SDS011;52765;52.258;21.052;2023-10-19T13:06:19;17.17;;;9.70;;
65996;SDS011;52765;52.258;21.052;2023-10-19T13:08:45;19.00;;;9.40;;
65996;SDS011;52765;52.258;21.052;2023-10-19T13:11:11;17.17;;;9.48;;
65996;SDS011;52765;52.258;21.052;2023-10-19T13:13:39;19.08;;;10.43;;
65996;SDS011;52765;52.258;21.052;2023-10-19T13:16:05;15.88;;;9.13;;
65996;SDS011;52765;52.258;21.052;2023-10-19T13:18:31;16.40;;;8.50;;
65996;SDS011;52765;52.258;21.052;2023-10-19T13:20:59;15.88;;;8.98;;
65996;SDS011;52765;52.258;21.052;2023-10-19T13:23:34;15.73;;;8.50;;
65996;SDS011;52765;52.258;21.052;2023-10-19T13:26:01;15.52;;;9.05;;
65996;SDS011;52765;52.258;21.052;2023-10-19T13:28:33;17.95;;;10.93;;
65996;SDS011;52765;52.258;21.052;2023-10-19T13:31:04;16.13;;;8.50;;
65996;SDS011;52765;52.258;21.052;2023-10-19T13:33:34;14.77;;;8.75;;
65996;SDS011;52765;52.258;21.052;2023-10-19T13:36:00;17.77;;;10.05;;
65996;SDS011;52765;52.258;21.052;2023-10-19T13:38:25;19.10;;;9.77;;
65996;SDS011;52765;52.258;21.052;2023-10-19T13:40:51;16.75;;;10.10;;
65996;SDS011;52765;52.258;21.052;2023-10-19T13:43:19;15.82;;;9.13;;
65996;SDS011;52765;52.258;21.052;2023-10-19T13:45:45;17.38;;;9.68;;
65996;SDS011;52765;52.258;21.052;2023-10-19T13:48:12;20.67;;;10.55;;
65996;SDS011;52765;52.258;21.052;2023-10-19T13:50:42;17.90;;;9.35;;
65996;SDS011;52765;52.258;21.052;2023-10-19T13:53:09;18.85;;;9.00;;
65996;SDS011;52765;52.258;21.052;2023-10-19T13:55:35;18.98;;;10.13;;
65996;SDS011;52765;52.258;21.052;2023-10-19T13:58:06;20.52;;;10.15;;
65996;SDS011;52765;52.258;21.052;2023-10-19T14:00:32;17.92;;;9.40;;
65996;SDS011;52765;52.258;21.052;2023-10-19T14:03:04;22.30;;;10.43;;
65996;SDS011;52765;52.258;21.052;2023-10-19T14:05:34;20.55;;;9.60;;
65996;SDS011;52765;52.258;21.052;2023-10-19T14:08:02;21.35;;;8.98;;
65996;SDS011;52765;52.258;21.052;2023-10-19T14:10:31;15.98;;;8.90;;
65996;SDS011;52765;52.258;21.052;2023-10-19T14:13:01;18.27;;;8.25;;
65996;SDS011;52765;52.258;21.052;2023-10-19T14:15:30;18.05;;;11.07;;
65996;SDS011;52765;52.258;21.052;2023-10-19T14:17:58;21.20;;;9.65;;
65996;SDS011;52765;52.258;21.052;2023-10-19T14:20:25;22.13;;;9.10;;
65996;SDS011;52765;52.258;21.052;2023-10-19T14:22:51;15.63;;;8.30;;
65996;SDS011;52765;52.258;21.052;2023-10-19T14:25:18;19.77;;;9.43;;
65996;SDS011;52765;52.258;21.052;2023-10-19T14:27:46;16.73;;;8.80;;
65996;SDS011;52765;52.258;21.052;2023-10-19T14:30:16;14.43;;;8.27;;
65996;SDS011;52765;52.258;21.052;2023-10-19T14:32:46;16.77;;;8.10;;
65996;SDS011;52765;52.258;21.052;2023-10-19T14:35:14;14.18;;;8.13;;
65996;SDS011;52765;52.258;21.052;2023-10-19T14:37:53;14.75;;;8.30;;
65996;SDS011;52765;52.258;21.052;2023-10-19T14:40:21;15.82;;;8.80;;
65996;SDS011;52765;52.258;21.052;2023-10-19T14:42:49;19.33;;;9.18;;